• Join FlightAware (Why Join?)
  • Login
  • US Flag 
08:22AM EST


 

Airport Tracker/Info


-or-


 

Live Flight TrackerFlight Track Log ✈ OPT335 ✈ 31-Jul-2013 ✈ KSFO - KABQ

Flight Track Log - Related Links

Times and Time Zones

All times are in EDT time to prevent confusion due to time zone crossing. See the OPT335 flight status page for this flight to view local times or setup timezone preferences in your user account.

Time Position Orientation Groundspeed Altitude Reporting Facility
EDT Latitude Longitude Course Direction KTS MPH feet Rate Location/Type
09:59AM 37.6293 -122.3690 26° Northeast 171 197 500  Level FlightAware ADS-B
09:59AM 37.6319 -122.3670 31° Northeast 177 204 600 1,500 Climbing FlightAware ADS-B
09:59AM 37.6353 -122.3660 13° North 181 208 700 1,320 Climbing FlightAware ADS-B
09:59AM 37.6389 -122.3660 360° North 183 211 800 2,400 Climbing FlightAware ADS-B
09:59AM 37.6448 -122.3660 360° North 189 217 1,100 2,400 Climbing FlightAware ADS-B
09:59AM 37.6476 -122.3660 360° North 192 221 1,200 1,500 Climbing FlightAware ADS-B
10:00AM 37.6548 -122.3680 348° North 198 228 1,400 2,160 Climbing FlightAware ADS-B
10:00AM 37.6583 -122.3680 360° North 201 231 1,600 2,220 Climbing FlightAware ADS-B
10:00AM 37.6626 -122.3680 360° North 205 236 1,700 2,280 Climbing FlightAware ADS-B
10:00AM 37.6749 -122.3700 353° North 204 235 2,300 2,160 Climbing FlightAware ADS-B
10:00AM 37.6817 -122.3760 325° Northwest 203 234 2,500 1,500 Climbing FlightAware ADS-B
10:00AM 37.6838 -122.3790 311° West 202 232 2,600 1,680 Climbing FlightAware ADS-B
10:00AM 37.6859 -122.3830 304° West 207 238 2,700 1,800 Climbing FlightAware ADS-B
10:00AM 37.6881 -122.3890 295° West 214 246 2,900 2,280 Climbing FlightAware ADS-B
10:01AM 37.6887 -122.4040 273° West 228 262 3,400 2,760 Climbing FlightAware ADS-B
10:01AM 37.6877 -122.4090 256° West 231 266 3,600 3,180 Climbing FlightAware ADS-B
10:01AM 37.6805 -122.4230 237° Southwest 237 273 4,200 3,000 Climbing FlightAware ADS-B
10:01AM 37.6772 -122.4260 216° Southwest 238 274 4,400 3,000 Climbing FlightAware ADS-B
10:01AM 37.6698 -122.4320 213° Southwest 244 281 4,800 3,000 Climbing FlightAware ADS-B
10:01AM 37.6632 -122.4340 193° South 248 285 5,100 3,120 Climbing FlightAware ADS-B
10:01AM 37.6459 -122.4400 195° South 248 285 5,900 3,420 Climbing FlightAware ADS-B
10:02AM 37.6267 -122.4450 192° South 244 281 7,000 3,720 Climbing FlightAware ADS-B
10:02AM 37.6056 -122.4510 193° South 241 277 8,200 3,540 Climbing FlightAware ADS-B
10:02AM 37.6018 -122.4510 180° South 243 280 8,300 3,000 Climbing FlightAware ADS-B
10:02AM 37.5984 -122.4500 167° South 244 281 8,500 3,000 Climbing FlightAware ADS-B
10:02AM 37.5927 -122.4480 164° South 246 283 8,700 2,700 Climbing FlightAware ADS-B
10:02AM 37.5743 -122.4410 163° South 251 289 9,500 2,880 Climbing FlightAware ADS-B
10:03AM 37.5397 -122.4280 163° South 261 300 11,000 3,000 Climbing FlightAware ADS-B
10:03AM 37.5074 -122.4150 162° South 264 304 12,400 2,880 Climbing FlightAware ADS-B
10:04AM 37.4998 -122.4110 157° South 266 306 12,700 2,460 Climbing FlightAware ADS-B
10:04AM 37.4943 -122.4070 150° Southeast 269 310 12,900 3,000 Climbing FlightAware ADS-B
10:04AM 37.4900 -122.4020 137° Southeast 273 314 13,200 3,720 Climbing FlightAware ADS-B
10:04AM 37.4871 -122.3970 126° Southeast 275 316 13,400 2,400 Climbing FlightAware ADS-B
10:04AM 37.4835 -122.3880 117° Southeast 280 322 13,600 1,980 Climbing FlightAware ADS-B
10:04AM 37.4815 -122.3800 107° East 284 327 13,800 2,400 Climbing FlightAware ADS-B
10:04AM 37.4743 -122.3430 104° East 294 338 14,700 2,460 Climbing FlightAware ADS-B
10:05AM 37.4629 -122.2920 106° East 302 348 16,000 2,520 Climbing FlightAware ADS-B
10:05AM 37.4515 -122.2410 106° East 303 349 17,300 2,460 Climbing FlightAware ADS-B
10:06AM 37.4403 -122.1900 105° East 311 358 18,500 2,160 Climbing FlightAware ADS-B
10:06AM 37.4283 -122.1370 106° East 322 371 19,500 1,980 Climbing FlightAware ADS-B
10:07AM 37.4160 -122.0810 105° East 330 380 20,500 1,980 Climbing FlightAware ADS-B
10:07AM 37.4034 -122.0250 106° East 335 386 21,500 1,980 Climbing FlightAware ADS-B
10:08AM 37.3906 -121.9680 106° East 338 389 22,500 1,740 Climbing FlightAware ADS-B
10:08AM 37.3775 -121.9100 106° East 345 397 23,300 1,560 Climbing FlightAware ADS-B
10:09AM 37.3633 -121.8470 106° East 352 405 24,200 1,620 Climbing FlightAware ADS-B
10:09AM 37.3498 -121.7870 106° East 356 410 25,000 1,440 Climbing FlightAware ADS-B
10:10AM 37.3359 -121.7260 106° East 364 419 25,700 1,140 Climbing FlightAware ADS-B
10:10AM 37.3220 -121.6650 106° East 375 432 26,200 1,200 Climbing FlightAware
10:11AM 37.3050 -121.5900 106° East 381 438 27,000 1,440 Climbing FlightAware
10:12AM 37.2852 -121.5030 106° East 384 442 28,000 1,500 Climbing FlightAware ADS-B
10:13AM 37.2510 -121.3560 106° East 388 447 29,800 1,440 Climbing FlightAware
10:13AM 37.2430 -121.3220 106° East 389 448 30,100 1,380 Climbing FlightAware
10:14AM 37.2180 -121.2110 106° East 393 452 31,400 1,440 Climbing FlightAware
10:14AM 37.2030 -121.1480 107° East 394 453 32,100 1,380 Climbing FlightAware
10:15AM 37.1840 -121.0660 106° East 394 453 33,000 1,500 Climbing FlightAware
10:16AM 37.1660 -120.9890 106° East 393 452 33,900 1,380 Climbing FlightAware
10:16AM 37.1470 -120.9090 107° East 398 458 34,600 1,020 Climbing FlightAware
10:17AM 37.1310 -120.8380 106° East 402 463 35,100 960 Climbing FlightAware
10:17AM 37.1130 -120.7620 107° East 406 467 35,700 960 Climbing FlightAware
10:18AM 37.0920 -120.6760 107° East 408 470 36,300 960 Climbing FlightAware
10:19AM 37.0730 -120.5940 106° East 411 473 36,900 960 Climbing FlightAware
10:19AM 37.0530 -120.5120 107° East 411 473 37,500 900 Climbing FlightAware
10:19AM 37.0420 -120.4640 106° East 411 473 37,800 900 Climbing FlightAware
10:21AM 37.0020 -120.2980 107° East 408 470 39,000 960 Climbing FlightAware
10:21AM 36.9840 -120.2230 107° East 406 467 39,600 900 Climbing FlightAware
10:22AM 36.9520 -120.0920 107° East 405 466 40,400 780 Climbing FlightAware
10:23AM 36.9350 -120.0200 106° East 404 465 40,800 780 Climbing FlightAware
10:24AM 36.9020 -119.8870 107° East 404 465 41,600 660 Climbing FlightAware
10:24AM 36.8830 -119.8060 106° East 410 472 41,900 480 Climbing FlightAware
10:25AM 36.8690 -119.7160 101° East 417 480 42,200 480 Climbing FlightAware
10:26AM 36.8530 -119.6160 101° East 420 483 42,600 540 Climbing FlightAware
10:26AM 36.8400 -119.5340 101° East 421 484 42,900 300 Climbing FlightAware
10:27AM 36.8260 -119.4490 102° East 425 489 43,000 60 Climbing FlightAware
10:27AM 36.8120 -119.3630 101° East 431 496 43,000  Level FlightAware
10:28AM 36.7980 -119.2760 101° East 431 496 43,000  Level FlightAware
10:29AM 36.7860 -119.1960 101° East 430 495 43,000  Level FlightAware
10:29AM 36.7710 -119.1050 102° East 430 495 43,000  Level FlightAware
10:30AM 36.7560 -119.0160 102° East 431 496 43,000  Level FlightAware
10:30AM 36.7430 -118.9380 102° East 431 496 43,000  Level FlightAware
10:31AM 36.7290 -118.8510 101° East 432 497 43,000  Level FlightAware
10:32AM 36.7150 -118.7640 101° East 432 497 43,000  Level FlightAware
10:32AM 36.7000 -118.6770 102° East 434 499 43,000  Level FlightAware
10:33AM 36.6870 -118.5990 102° East 433 498 43,000  Level FlightAware
10:33AM 36.6720 -118.5100 102° East 431 496 43,000  Level FlightAware
10:34AM 36.6590 -118.4330 102° East 430 495 43,000  Level FlightAware
10:34AM 36.6430 -118.3420 102° East 429 494 43,000  Level FlightAware
10:35AM 36.6280 -118.2530 102° East 429 494 43,000  Level FlightAware
10:36AM 36.6150 -118.1740 102° East 427 491 43,000  Level FlightAware
10:36AM 36.5990 -118.0840 102° East 425 489 43,000  Level FlightAware
10:37AM 36.5850 -118.0000 102° East 427 491 43,000  Level FlightAware
10:37AM 36.5710 -117.9180 102° East 427 491 43,000  Level FlightAware
10:38AM 36.5560 -117.8330 102° East 429 494 43,000  Level FlightAware
10:39AM 36.5380 -117.7340 103° East 430 495 43,000  Level FlightAware
10:39AM 36.5240 -117.6530 102° East 430 495 43,000  Level FlightAware
10:40AM 36.5120 -117.5820 102° East 430 495 43,000  Level FlightAware
10:41AM 36.4950 -117.4830 102° East 430 495 43,000  Level FlightAware
10:41AM 36.4820 -117.4070 102° East 430 495 43,000  Level FlightAware
10:42AM 36.4600 -117.2770 102° East 430 495 43,000  Level FlightAware
10:43AM 36.4590 -117.1240 90° East 435 501 43,000  Level FlightAware
10:43AM 36.4520 -117.0420 96° East 437 503 43,000  Level FlightAware
10:44AM 36.4460 -116.9670 96° East 438 504 43,000  Level FlightAware
10:45AM 36.4370 -116.8650 96° East 440 506 43,000  Level FlightAware
10:45AM 36.4300 -116.7880 96° East 440 506 43,000  Level FlightAware
10:46AM 36.4220 -116.6990 96° East 440 506 43,000  Level FlightAware
10:46AM 36.4140 -116.6040 96° East 439 505 43,000  Level FlightAware
10:47AM 36.4060 -116.5110 96° East 441 507 43,000  Level FlightAware
10:48AM 36.3980 -116.4160 96° East 441 507 43,000  Level FlightAware
10:48AM 36.3910 -116.3440 97° East 440 506 43,000  Level FlightAware
10:49AM 36.3830 -116.2550 96° East 439 505 43,000  Level FlightAware
10:49AM 36.3740 -116.1560 96° East 439 505 43,000  Level FlightAware
10:50AM 36.3660 -116.0720 97° East 440 506 43,000  Level FlightAware
10:50AM 36.3580 -115.9860 97° East 440 506 43,000  Level FlightAware
10:51AM 36.3490 -115.8920 97° East 439 505 43,000  Level FlightAware
10:52AM 36.3420 -115.8120 96° East 438 504 43,000  Level FlightAware
10:52AM 36.3330 -115.7210 97° East 435 501 43,000  Level FlightAware
10:53AM 36.3240 -115.6290 97° East 435 501 43,000  Level FlightAware
10:53AM 36.3170 -115.5510 96° East 435 501 43,000  Level FlightAware
10:54AM 36.3080 -115.4600 97° East 435 501 43,000  Level FlightAware
10:55AM 36.2980 -115.3550 97° East 433 498 43,000  Level FlightAware
10:55AM 36.2900 -115.2640 96° East 433 498 43,000  Level FlightAware
10:56AM 36.2790 -115.1660 98° East 433 498 43,000  Level FlightAware
10:56AM 36.2720 -115.0930 97° East 433 498 43,000  Level FlightAware
10:57AM 36.2610 -114.9840 97° East 434 499 43,000  Level FlightAware
10:58AM 36.2510 -114.8890 97° East 434 499 43,000  Level FlightAware
10:58AM 36.2430 -114.8110 97° East 434 499 43,000  Level FlightAware
10:59AM 36.2340 -114.7270 98° East 434 499 43,000  Level FlightAware
10:59AM 36.2250 -114.6400 97° East 435 501 43,000  Level FlightAware
11:00AM 36.2140 -114.5370 98° East 436 502 43,000  Level FlightAware
11:01AM 36.2040 -114.4430 97° East 436 502 43,000  Level FlightAware
11:01AM 36.1960 -114.3630 97° East 437 503 43,000  Level FlightAware
11:02AM 36.1820 -114.2340 98° East 437 503 43,000  Level FlightAware
11:03AM 36.1680 -114.1090 98° East 437 503 43,000  Level FlightAware
11:04AM 36.1590 -114.0210 97° East 437 503 43,000  Level FlightAware
11:04AM 36.1490 -113.9350 98° East 438 504 43,000  Level FlightAware
11:05AM 36.1390 -113.8470 98° East 440 506 43,000  Level FlightAware
11:05AM 36.1320 -113.7810 97° East 441 507 43,000  Level FlightAware
11:06AM 36.1220 -113.6910 98° East 441 507 43,000  Level FlightAware
11:07AM 36.1100 -113.5900 98° East 442 509 43,000  Level FlightAware
11:07AM 36.1000 -113.5000 98° East 442 509 43,000  Level FlightAware
11:08AM 36.0910 -113.4250 98° East 443 510 43,000  Level FlightAware
11:08AM 36.0820 -113.3460 98° East 442 509 43,000  Level FlightAware
11:09AM 36.0690 -113.2350 98° East 441 507 43,000  Level FlightAware
11:09AM 36.0610 -113.1650 98° East 441 507 43,000  Level FlightAware
11:10AM 36.0500 -113.0720 98° East 441 507 43,000  Level FlightAware
11:10AM 36.0410 -112.9950 98° East 442 509 43,000  Level FlightAware
11:11AM 36.0300 -112.9060 99° East 442 509 43,000  Level FlightAware
11:12AM 36.0210 -112.8260 98° East 441 507 43,000  Level FlightAware
11:12AM 36.0090 -112.7260 98° East 443 510 43,000  Level FlightAware
11:13AM 35.9980 -112.6400 99° East 443 510 43,000  Level FlightAware
11:13AM 35.9870 -112.5510 99° East 443 510 43,000  Level FlightAware
11:14AM 35.9770 -112.4690 99° East 444 511 43,000  Level FlightAware
11:15AM 35.9660 -112.3760 98° East 444 511 43,000  Level FlightAware
11:15AM 35.9540 -112.2850 99° East 444 511 43,000  Level FlightAware
11:16AM 35.9440 -112.2010 98° East 445 512 43,000  Level FlightAware
11:16AM 35.9320 -112.1060 99° East 444 511 43,000  Level FlightAware
11:17AM 35.9220 -112.0260 99° East 445 512 43,000  Level FlightAware
11:18AM 35.9110 -111.9420 99° East 445 512 43,000  Level FlightAware
11:18AM 35.8990 -111.8460 99° East 446 513 43,000  Level FlightAware
11:19AM 35.8870 -111.7600 100° East 446 513 43,000  Level FlightAware
11:19AM 35.8770 -111.6790 99° East 446 513 43,000  Level FlightAware
11:20AM 35.8640 -111.5790 99° East 447 514 43,000  Level FlightAware
11:20AM 35.8530 -111.5000 100° East 447 514 43,000  Level FlightAware
11:21AM 35.8410 -111.4080 99° East 446 513 43,000  Level FlightAware
11:22AM 35.8300 -111.3220 99° East 447 514 43,000  Level FlightAware
11:22AM 35.8220 -111.2630 99° East 446 513 43,000  Level FlightAware
11:23AM 35.8020 -111.1180 100° East 447 514 43,000 -120 Level FlightAware
11:24AM 35.7910 -111.0320 99° East 449 517 42,900 -600 Descending FlightAware
11:24AM 35.7780 -110.9430 100° East 452 520 42,300 -960 Descending FlightAware
11:25AM 35.7680 -110.8700 100° East 453 521 41,900 -1,020 Descending FlightAware
11:25AM 35.7540 -110.7670 99° East 453 521 41,200 -1,020 Descending FlightAware
11:26AM 35.7420 -110.6780 99° East 445 512 40,600 -1,080 Descending FlightAware
11:26AM 35.7300 -110.5920 100° East 446 513 40,000 -1,080 Descending FlightAware
11:27AM 35.7170 -110.5010 100° East 457 526 39,400 -900 Descending FlightAware
11:28AM 35.7050 -110.4160 100° East 456 525 39,000 -360 Descending FlightAware
11:28AM 35.6920 -110.3240 100° East 447 514 39,000  Level FlightAware
11:29AM 35.6790 -110.2330 100° East 446 513 39,000  Level FlightAware
11:29AM 35.6680 -110.1540 100° East 446 513 39,000  Level FlightAware
11:30AM 35.6540 -110.0620 101° East 450 518 39,000 -180 Level FlightAware
11:31AM 35.6410 -109.9700 100° East 463 533 38,800 -720 Descending FlightAware
11:31AM 35.6270 -109.8750 100° East 467 537 38,200 -1,080 Descending FlightAware
11:32AM 35.6170 -109.8030 100° East 465 535 37,700 -420 Descending FlightAware
11:32AM 35.6020 -109.7020 100° East 466 536 37,700 -540 Level FlightAware
11:33AM 35.5850 -109.5920 101° East 462 532 37,000 -1,440 Descending FlightAware
11:34AM 35.5730 -109.5090 100° East 457 526 36,100 -1,800 Descending FlightAware
11:34AM 35.5520 -109.3700 100° East 468 539 34,500 -1,860 Descending FlightAware
11:35AM 35.5390 -109.2850 101° East 469 540 33,500 -1,260 Descending FlightAware
11:36AM 35.5210 -109.1640 100° East 470 541 32,800 -540 Descending FlightAware
11:36AM 35.5090 -109.0790 100° East 470 541 32,800  Level FlightAware
11:37AM 35.4980 -108.9980 99° East 470 541 32,800  Level FlightAware
11:38AM 35.4860 -108.9180 100° East 470 541 32,800  Level FlightAware
11:38AM 35.4740 -108.8370 100° East 470 541 32,800  Level FlightAware
11:39AM 35.4630 -108.7570 100° East 470 541 32,800  Level FlightAware
11:39AM 35.4510 -108.6760 100° East 470 541 32,800  Level FlightAware
11:40AM 35.4410 -108.6050 100° East 470 541 32,800  Level FlightAware
11:41AM 35.4290 -108.5220 100° East 470 541 32,800  Level FlightAware
11:41AM 35.4180 -108.4420 100° East 470 541 32,800 -8,520 Level FlightAware
11:41AM 35.4400 -108.2580 82° East 444 511 25,000 -6,540 Descending FlightAware
11:42AM 35.4300 -108.1220 95° East 441 507 25,000  Level FlightAware
11:43AM 35.4230 -108.0290 95° East 442 509 25,000 -120 Level FlightAware
11:44AM 35.4170 -107.9450 95° East 441 507 24,900 -1,200 Descending FlightAware
11:44AM 35.4110 -107.8640 95° East 431 496 23,700 -900 Descending FlightAware
11:45AM 35.4030 -107.7600 95° East 431 496 23,700 -2,220 Level FlightAware
11:46AM 35.3950 -107.6580 95° East 400 460 20,500 -3,780 Descending FlightAware
11:46AM 35.3890 -107.5870 96° East 389 448 19,400 -2,100 Descending FlightAware
11:47AM 35.3830 -107.5140 96° East 380 437 18,200 -2,280 Descending FlightAware
11:47AM 35.3770 -107.4390 96° East 359 413 16,800 -1,140 Descending FlightAware
11:48AM 35.3730 -107.3710 94° East 359 413 16,800  Level FlightAware
11:49AM 35.3680 -107.3070 95° East 359 413 16,800 -3,000 Level FlightAware
11:49AM 35.3600 -107.2450 99° East 318 366 13,600 -4,020 Descending FlightAware
11:50AM 35.3320 -107.1870 121° Southeast 311 358 12,400 -2,040 Descending FlightAware
11:50AM 35.3060 -107.1350 121° Southeast 310 357 11,200 -2,040 Descending FlightAware
11:51AM 35.2790 -107.0890 126° Southeast 302 348 10,100 -1,860 Descending FlightAware
11:51AM 35.2680 -107.0780 141° Southeast 301 346 9,800 -1,980 Descending FlightAware
11:51AM 35.2430 -107.0480 136° Southeast 297 342 9,000 -1,800 Descending FlightAware
11:52AM 35.2250 -107.0270 136° Southeast 287 330 8,600 -600 Descending FlightAware
11:52AM 35.2000 -106.9990 138° Southeast 280 322 8,600  Level FlightAware
11:52AM 35.1810 -106.9780 138° Southeast 278 320 8,600  Level FlightAware
11:53AM 35.1620 -106.9560 137° Southeast 246 283 8,600  Level FlightAware
11:53AM 35.1520 -106.9450 138° Southeast 241 277 8,600  Level FlightAware
11:53AM 35.1330 -106.9210 134° Southeast 241 277 8,600  Level FlightAware
11:54AM 35.1170 -106.9020 136° Southeast 242 278 8,600  Level FlightAware
11:54AM 35.1010 -106.8830 136° Southeast 243 280 8,600  Level FlightAware
11:54AM 35.0850 -106.8640 136° Southeast 242 278 8,600 -180 Level FlightAware
11:55AM 35.0660 -106.8420 137° Southeast 236 272 8,500 -480 Descending FlightAware
11:55AM 35.0630 -106.8380 132° Southeast 236 272 8,400 -600 Descending FlightAware
11:55AM 35.0600 -106.8300 115° Southeast 236 272 8,400 -1,200 Level FlightAware
11:55AM 35.0530 -106.8130 117° Southeast 234 269 8,000 -1,800 Descending FlightAware
11:55AM 35.0480 -106.7880 104° East 223 257 7,400 -1,380 Descending FlightAware
11:56AM 35.0450 -106.7590 97° East 217 250 7,000 -1,020 Descending FlightAware
11:56AM 35.0450 -106.7450 90° East 201 231 6,800 -1,020 Descending FlightAware
11:56AM 35.0450 -106.7250 90° East 183 211 6,500 -840 Descending FlightAware
11:57AM 35.0450 -106.7080 90° East 170 196 6,300 -720 Descending FlightAware
11:57AM 35.0450 -106.6940 90° East 166 191 6,100 -900 Descending FlightAware
11:57AM 35.0450 -106.6710 90° East 157 181 5,700 -540 Descending FlightAware
11:58AM 35.0450 -106.6520 90° East 157 181 5,700 -240 Level FlightAware
11:59AM 35.0425 -106.5967 90° East 140 161 5,300 -300 Descending Albuquerque Center
12:01PM 35.0402 -106.6092 257° West  Level Estimated